sensor_id;sensor_type;location;lat;lon;timestamp;pressure;altitude;pressure_sealevel;temperature;humidity
74561;BME280;62979;55.720;37.606;2023-09-08T00:00:50;100122.22;;;16.12;48.83
74561;BME280;62979;55.720;37.606;2023-09-08T00:03:17;100120.31;;;16.16;48.59
74561;BME280;62979;55.720;37.606;2023-09-08T00:05:44;100109.63;;;16.19;48.91
74561;BME280;62979;55.720;37.606;2023-09-08T00:08:12;100118.69;;;15.90;48.54
74561;BME280;62979;55.720;37.606;2023-09-08T00:10:39;100109.69;;;15.73;49.28
74561;BME280;62979;55.720;37.606;2023-09-08T00:13:06;100107.72;;;15.78;49.52
74561;BME280;62979;55.720;37.606;2023-09-08T00:15:33;100114.59;;;15.82;49.58
74561;BME280;62979;55.720;37.606;2023-09-08T00:18:01;100107.47;;;15.84;49.09
74561;BME280;62979;55.720;37.606;2023-09-08T00:20:28;100106.81;;;15.79;49.26
74561;BME280;62979;55.720;37.606;2023-09-08T00:22:54;100104.53;;;15.92;49.30
74561;BME280;62979;55.720;37.606;2023-09-08T00:25:23;100098.53;;;16.11;48.70
74561;BME280;62979;55.720;37.606;2023-09-08T00:27:50;100100.97;;;16.15;48.76
74561;BME280;62979;55.720;37.606;2023-09-08T00:30:16;100103.31;;;15.79;48.68
74561;BME280;62979;55.720;37.606;2023-09-08T00:32:43;100109.09;;;15.65;49.40
74561;BME280;62979;55.720;37.606;2023-09-08T00:35:11;100105.91;;;15.33;49.91
74561;BME280;62979;55.720;37.606;2023-09-08T00:37:39;100105.88;;;15.57;50.27
74561;BME280;62979;55.720;37.606;2023-09-08T00:40:07;100102.75;;;15.47;49.69
74561;BME280;62979;55.720;37.606;2023-09-08T00:42:36;100101.53;;;15.09;50.59
74561;BME280;62979;55.720;37.606;2023-09-08T00:45:03;100095.13;;;15.16;50.67
74561;BME280;62979;55.720;37.606;2023-09-08T00:47:31;100094.56;;;15.08;50.74
74561;BME280;62979;55.720;37.606;2023-09-08T00:49:58;100096.91;;;15.15;51.09
74561;BME280;62979;55.720;37.606;2023-09-08T00:52:25;100091.81;;;15.34;50.54
74561;BME280;62979;55.720;37.606;2023-09-08T00:54:56;100089.75;;;15.43;50.18
74561;BME280;62979;55.720;37.606;2023-09-08T00:57:23;100083.28;;;15.28;50.83
74561;BME280;62979;55.720;37.606;2023-09-08T00:59:53;100090.34;;;15.27;51.10
74561;BME280;62979;55.720;37.606;2023-09-08T01:02:20;100083.75;;;15.15;50.79
74561;BME280;62979;55.720;37.606;2023-09-08T01:04:48;100091.47;;;15.20;51.09
74561;BME280;62979;55.720;37.606;2023-09-08T01:07:16;100087.28;;;15.38;51.20
74561;BME280;62979;55.720;37.606;2023-09-08T01:09:46;100080.47;;;15.56;50.53
74561;BME280;62979;55.720;37.606;2023-09-08T01:12:14;100079.22;;;15.65;49.86
74561;BME280;62979;55.720;37.606;2023-09-08T01:14:42;100090.63;;;15.65;49.66
74561;BME280;62979;55.720;37.606;2023-09-08T01:17:10;100087.25;;;15.61;50.23
74561;BME280;62979;55.720;37.606;2023-09-08T01:19:38;100081.38;;;15.55;50.15
74561;BME280;62979;55.720;37.606;2023-09-08T01:22:27;100079.44;;;15.36;50.52
74561;BME280;62979;55.720;37.606;2023-09-08T01:25:21;100056.63;;;15.35;50.55
74561;BME280;62979;55.720;37.606;2023-09-08T01:27:51;100078.97;;;15.25;51.11
74561;BME280;62979;55.720;37.606;2023-09-08T01:30:20;100081.97;;;15.16;51.30
74561;BME280;62979;55.720;37.606;2023-09-08T01:32:50;100084.84;;;15.10;51.56
74561;BME280;62979;55.720;37.606;2023-09-08T01:35:18;100080.47;;;15.09;51.75
74561;BME280;62979;55.720;37.606;2023-09-08T01:37:46;100077.44;;;14.96;52.04
74561;BME280;62979;55.720;37.606;2023-09-08T01:40:15;100063.59;;;14.66;52.71
74561;BME280;62979;55.720;37.606;2023-09-08T01:42:45;100084.03;;;14.31;53.85
74561;BME280;62979;55.720;37.606;2023-09-08T01:45:12;100074.97;;;14.15;54.99
74561;BME280;62979;55.720;37.606;2023-09-08T01:47:39;100047.78;;;13.87;55.62
74561;BME280;62979;55.720;37.606;2023-09-08T01:50:06;100057.19;;;13.68;57.22
74561;BME280;62979;55.720;37.606;2023-09-08T01:52:34;100067.44;;;13.76;57.57
74561;BME280;62979;55.720;37.606;2023-09-08T01:55:01;100068.72;;;13.62;58.22
74561;BME280;62979;55.720;37.606;2023-09-08T01:57:28;100066.38;;;13.53;59.24
74561;BME280;62979;55.720;37.606;2023-09-08T01:59:56;100072.72;;;13.46;59.31
74561;BME280;62979;55.720;37.606;2023-09-08T02:02:23;100058.84;;;13.11;60.65
74561;BME280;62979;55.720;37.606;2023-09-08T02:04:50;100050.75;;;13.19;60.95
74561;BME280;62979;55.720;37.606;2023-09-08T02:07:17;100061.19;;;13.22;60.77
74561;BME280;62979;55.720;37.606;2023-09-08T02:09:43;100064.78;;;13.18;61.26
74561;BME280;62979;55.720;37.606;2023-09-08T02:12:10;100060.91;;;13.31;61.45
74561;BME280;62979;55.720;37.606;2023-09-08T02:14:37;100045.56;;;13.47;60.87
74561;BME280;62979;55.720;37.606;2023-09-08T02:17:05;100048.25;;;13.74;60.31
74561;BME280;62979;55.720;37.606;2023-09-08T02:19:32;100049.69;;;13.82;59.73
74561;BME280;62979;55.720;37.606;2023-09-08T02:21:59;100043.56;;;14.10;58.74
74561;BME280;62979;55.720;37.606;2023-09-08T02:24:26;100041.34;;;13.98;58.93
74561;BME280;62979;55.720;37.606;2023-09-08T02:26:53;100037.78;;;13.99;59.40
74561;BME280;62979;55.720;37.606;2023-09-08T02:29:20;100028.88;;;14.03;58.59
74561;BME280;62979;55.720;37.606;2023-09-08T02:31:47;100027.41;;;14.21;58.71
74561;BME280;62979;55.720;37.606;2023-09-08T02:34:16;100019.78;;;14.38;58.09
74561;BME280;62979;55.720;37.606;2023-09-08T02:36:43;100015.97;;;14.47;57.81
74561;BME280;62979;55.720;37.606;2023-09-08T02:39:13;100014.88;;;14.52;57.81
74561;BME280;62979;55.720;37.606;2023-09-08T02:41:40;100013.69;;;14.63;57.42
74561;BME280;62979;55.720;37.606;2023-09-08T02:44:06;100006.25;;;14.49;56.89
74561;BME280;62979;55.720;37.606;2023-09-08T02:46:33;99998.44;;;14.46;56.80
74561;BME280;62979;55.720;37.606;2023-09-08T02:49:00;100010.31;;;14.59;56.73
74561;BME280;62979;55.720;37.606;2023-09-08T02:51:29;99993.03;;;14.50;56.05
74561;BME280;62979;55.720;37.606;2023-09-08T02:53:55;100001.44;;;14.62;56.40
74561;BME280;62979;55.720;37.606;2023-09-08T02:56:22;99998.13;;;14.57;56.07
74561;BME280;62979;55.720;37.606;2023-09-08T02:58:49;99998.97;;;14.32;56.56
74561;BME280;62979;55.720;37.606;2023-09-08T03:01:17;100002.22;;;14.39;56.76
74561;BME280;62979;55.720;37.606;2023-09-08T03:03:45;100008.75;;;14.53;56.81
74561;BME280;62979;55.720;37.606;2023-09-08T03:06:14;100004.75;;;14.67;56.38
74561;BME280;62979;55.720;37.606;2023-09-08T03:08:43;100007.63;;;14.61;56.67
74561;BME280;62979;55.720;37.606;2023-09-08T03:11:10;100008.19;;;14.44;56.61
74561;BME280;62979;55.720;37.606;2023-09-08T03:13:36;100004.66;;;14.45;56.83
74561;BME280;62979;55.720;37.606;2023-09-08T03:16:04;100005.66;;;14.41;56.76
74561;BME280;62979;55.720;37.606;2023-09-08T03:18:32;100004.09;;;14.35;57.58
74561;BME280;62979;55.720;37.606;2023-09-08T03:20:59;99997.47;;;14.48;57.31
74561;BME280;62979;55.720;37.606;2023-09-08T03:23:28;99995.03;;;14.44;56.82
74561;BME280;62979;55.720;37.606;2023-09-08T03:25:57;99987.72;;;14.52;57.00
74561;BME280;62979;55.720;37.606;2023-09-08T03:28:23;99989.59;;;14.23;57.40
74561;BME280;62979;55.720;37.606;2023-09-08T03:30:50;99995.16;;;14.14;57.58
74561;BME280;62979;55.720;37.606;2023-09-08T03:33:17;99996.34;;;14.32;57.56
74561;BME280;62979;55.720;37.606;2023-09-08T03:35:44;99989.09;;;14.64;56.75
74561;BME280;62979;55.720;37.606;2023-09-08T03:38:11;99987.31;;;14.88;55.92
74561;BME280;62979;55.720;37.606;2023-09-08T03:40:38;99993.91;;;14.76;56.30
74561;BME280;62979;55.720;37.606;2023-09-08T03:43:06;99986.78;;;14.54;57.04
74561;BME280;62979;55.720;37.606;2023-09-08T03:45:33;99990.34;;;14.52;57.43
74561;BME280;62979;55.720;37.606;2023-09-08T03:48:00;99976.94;;;14.09;58.41
74561;BME280;62979;55.720;37.606;2023-09-08T03:50:26;99979.53;;;13.84;58.60
74561;BME280;62979;55.720;37.606;2023-09-08T03:52:54;99971.94;;;13.75;59.20
74561;BME280;62979;55.720;37.606;2023-09-08T03:55:20;99974.78;;;13.96;58.74
74561;BME280;62979;55.720;37.606;2023-09-08T03:57:47;99977.16;;;14.03;58.30
74561;BME280;62979;55.720;37.606;2023-09-08T04:00:16;99969.44;;;13.97;58.11
74561;BME280;62979;55.720;37.606;2023-09-08T04:02:47;99963.06;;;13.79;58.48
74561;BME280;62979;55.720;37.606;2023-09-08T04:05:15;99960.88;;;13.65;59.22
74561;BME280;62979;55.720;37.606;2023-09-08T04:07:42;99970.53;;;13.65;58.66
74561;BME280;62979;55.720;37.606;2023-09-08T04:10:10;99965.09;;;13.71;59.29
74561;BME280;62979;55.720;37.606;2023-09-08T04:12:38;99974.81;;;13.94;57.51
74561;BME280;62979;55.720;37.606;2023-09-08T04:15:06;99962.78;;;13.87;58.09
74561;BME280;62979;55.720;37.606;2023-09-08T04:17:35;99967.75;;;13.43;58.88
74561;BME280;62979;55.720;37.606;2023-09-08T04:20:03;99965.94;;;13.45;59.32
74561;BME280;62979;55.720;37.606;2023-09-08T04:22:31;99967.66;;;13.73;58.78
74561;BME280;62979;55.720;37.606;2023-09-08T04:24:58;99960.69;;;13.72;58.49
74561;BME280;62979;55.720;37.606;2023-09-08T04:27:25;99972.81;;;13.76;57.93
74561;BME280;62979;55.720;37.606;2023-09-08T04:29:52;99954.47;;;13.74;58.29
74561;BME280;62979;55.720;37.606;2023-09-08T04:32:19;99949.97;;;13.78;57.93
74561;BME280;62979;55.720;37.606;2023-09-08T04:34:47;99956.84;;;13.82;57.65
74561;BME280;62979;55.720;37.606;2023-09-08T04:37:14;99955.31;;;13.75;57.58
74561;BME280;62979;55.720;37.606;2023-09-08T04:39:42;99965.94;;;13.72;57.84
74561;BME280;62979;55.720;37.606;2023-09-08T04:42:10;99952.97;;;13.92;57.88
74561;BME280;62979;55.720;37.606;2023-09-08T04:44:38;99954.59;;;13.96;57.04
74561;BME280;62979;55.720;37.606;2023-09-08T04:47:05;99956.06;;;14.05;56.85
74561;BME280;62979;55.720;37.606;2023-09-08T04:49:32;99951.94;;;13.98;57.15
74561;BME280;62979;55.720;37.606;2023-09-08T04:52:00;99946.75;;;13.95;56.60
74561;BME280;62979;55.720;37.606;2023-09-08T04:54:27;99957.78;;;13.79;57.22
74561;BME280;62979;55.720;37.606;2023-09-08T04:56:54;99947.69;;;13.67;57.51
74561;BME280;62979;55.720;37.606;2023-09-08T04:59:21;99946.44;;;13.79;57.17
74561;BME280;62979;55.720;37.606;2023-09-08T05:01:49;99949.88;;;13.54;57.71
74561;BME280;62979;55.720;37.606;2023-09-08T05:04:17;99938.97;;;13.91;58.28
74561;BME280;62979;55.720;37.606;2023-09-08T05:06:44;99925.56;;;13.99;57.79
74561;BME280;62979;55.720;37.606;2023-09-08T05:09:12;99940.28;;;14.30;56.49
74561;BME280;62979;55.720;37.606;2023-09-08T05:11:40;99946.47;;;14.54;54.98
74561;BME280;62979;55.720;37.606;2023-09-08T05:14:06;99932.63;;;14.47;55.72
74561;BME280;62979;55.720;37.606;2023-09-08T05:16:34;99924.09;;;14.66;55.29
74561;BME280;62979;55.720;37.606;2023-09-08T05:19:10;99919.25;;;14.77;54.00
74561;BME280;62979;55.720;37.606;2023-09-08T05:21:38;99917.50;;;14.99;53.89
74561;BME280;62979;55.720;37.606;2023-09-08T05:24:06;99925.84;;;15.11;53.52
74561;BME280;62979;55.720;37.606;2023-09-08T05:26:36;99915.44;;;15.08;52.30
74561;BME280;62979;55.720;37.606;2023-09-08T05:29:04;99913.22;;;15.19;51.82
74561;BME280;62979;55.720;37.606;2023-09-08T05:31:31;99912.81;;;15.30;52.16
74561;BME280;62979;55.720;37.606;2023-09-08T05:33:58;99920.41;;;15.15;51.55
74561;BME280;62979;55.720;37.606;2023-09-08T05:36:25;99899.38;;;14.92;51.90
74561;BME280;62979;55.720;37.606;2023-09-08T05:38:52;99910.00;;;14.67;51.50
74561;BME280;62979;55.720;37.606;2023-09-08T05:41:19;99909.28;;;14.63;51.89
74561;BME280;62979;55.720;37.606;2023-09-08T05:43:47;99900.47;;;14.39;53.12
74561;BME280;62979;55.720;37.606;2023-09-08T05:46:14;99900.81;;;14.30;53.18
74561;BME280;62979;55.720;37.606;2023-09-08T05:48:41;99900.50;;;14.63;53.47
74561;BME280;62979;55.720;37.606;2023-09-08T05:51:08;99882.47;;;14.75;52.44
74561;BME280;62979;55.720;37.606;2023-09-08T05:53:35;99888.53;;;14.99;51.79
74561;BME280;62979;55.720;37.606;2023-09-08T05:56:04;99882.72;;;14.91;50.93
74561;BME280;62979;55.720;37.606;2023-09-08T05:58:31;99883.38;;;14.74;51.42
74561;BME280;62979;55.720;37.606;2023-09-08T06:01:00;99868.00;;;14.64;51.14
74561;BME280;62979;55.720;37.606;2023-09-08T06:03:28;99876.06;;;14.59;51.76
74561;BME280;62979;55.720;37.606;2023-09-08T06:05:55;99874.97;;;14.65;51.48
74561;BME280;62979;55.720;37.606;2023-09-08T06:08:22;99872.00;;;14.96;51.77
74561;BME280;62979;55.720;37.606;2023-09-08T06:10:49;99878.06;;;15.20;50.47
74561;BME280;62979;55.720;37.606;2023-09-08T06:13:16;99867.91;;;15.11;50.51
74561;BME280;62979;55.720;37.606;2023-09-08T06:15:43;99857.88;;;14.98;50.38
74561;BME280;62979;55.720;37.606;2023-09-08T06:18:12;99863.81;;;15.04;50.54
74561;BME280;62979;55.720;37.606;2023-09-08T06:20:44;99859.81;;;15.15;50.67
74561;BME280;62979;55.720;37.606;2023-09-08T06:23:12;99864.53;;;15.29;50.14
74561;BME280;62979;55.720;37.606;2023-09-08T06:25:39;99864.25;;;15.15;49.64
74561;BME280;62979;55.720;37.606;2023-09-08T06:28:06;99854.50;;;14.73;50.14
74561;BME280;62979;55.720;37.606;2023-09-08T06:30:33;99864.97;;;14.96;49.89
74561;BME280;62979;55.720;37.606;2023-09-08T06:33:00;99853.56;;;15.18;49.57
74561;BME280;62979;55.720;37.606;2023-09-08T06:35:29;99865.69;;;15.44;48.52
74561;BME280;62979;55.720;37.606;2023-09-08T06:37:56;99859.09;;;15.54;48.39
74561;BME280;62979;55.720;37.606;2023-09-08T06:40:23;99844.59;;;15.44;48.23
74561;BME280;62979;55.720;37.606;2023-09-08T06:42:50;99845.56;;;15.62;48.18
74561;BME280;62979;55.720;37.606;2023-09-08T06:45:17;99845.97;;;15.53;47.33
74561;BME280;62979;55.720;37.606;2023-09-08T06:47:44;99843.75;;;15.64;47.29
74561;BME280;62979;55.720;37.606;2023-09-08T06:50:11;99832.56;;;15.79;47.18
74561;BME280;62979;55.720;37.606;2023-09-08T06:52:40;99836.38;;;15.72;47.53
74561;BME280;62979;55.720;37.606;2023-09-08T06:55:07;99829.72;;;15.63;47.25
74561;BME280;62979;55.720;37.606;2023-09-08T06:57:34;99826.28;;;15.61;47.66
74561;BME280;62979;55.720;37.606;2023-09-08T07:00:02;99806.63;;;15.69;47.75
74561;BME280;62979;55.720;37.606;2023-09-08T07:02:32;99823.13;;;15.74;47.54
74561;BME280;62979;55.720;37.606;2023-09-08T07:05:00;99804.84;;;15.69;47.81
74561;BME280;62979;55.720;37.606;2023-09-08T07:07:31;99806.38;;;15.54;47.32
74561;BME280;62979;55.720;37.606;2023-09-08T07:10:00;99811.03;;;15.48;47.37
74561;BME280;62979;55.720;37.606;2023-09-08T07:12:27;99807.28;;;15.33;47.33
74561;BME280;62979;55.720;37.606;2023-09-08T07:14:54;99810.25;;;15.46;47.40
74561;BME280;62979;55.720;37.606;2023-09-08T07:17:21;99807.47;;;15.71;46.22
74561;BME280;62979;55.720;37.606;2023-09-08T07:19:49;99800.50;;;15.68;46.59
74561;BME280;62979;55.720;37.606;2023-09-08T07:22:16;99792.72;;;15.45;46.81
74561;BME280;62979;55.720;37.606;2023-09-08T07:24:42;99788.88;;;15.31;47.15
74561;BME280;62979;55.720;37.606;2023-09-08T07:27:11;99794.41;;;15.05;47.68
74561;BME280;62979;55.720;37.606;2023-09-08T07:29:39;99792.31;;;15.13;47.03
74561;BME280;62979;55.720;37.606;2023-09-08T07:32:06;99786.72;;;15.41;46.88
74561;BME280;62979;55.720;37.606;2023-09-08T07:34:33;99776.84;;;15.67;46.93
74561;BME280;62979;55.720;37.606;2023-09-08T07:37:01;99788.06;;;15.51;46.48
74561;BME280;62979;55.720;37.606;2023-09-08T07:39:27;99776.03;;;15.65;46.47
74561;BME280;62979;55.720;37.606;2023-09-08T07:41:55;99781.31;;;15.65;46.50
74561;BME280;62979;55.720;37.606;2023-09-08T07:44:24;99784.81;;;15.65;46.48
74561;BME280;62979;55.720;37.606;2023-09-08T07:46:50;99766.38;;;15.86;46.50
74561;BME280;62979;55.720;37.606;2023-09-08T07:49:18;99768.91;;;16.26;46.01
74561;BME280;62979;55.720;37.606;2023-09-08T07:51:45;99769.53;;;16.32;45.36
74561;BME280;62979;55.720;37.606;2023-09-08T07:54:13;99751.81;;;16.34;44.99
74561;BME280;62979;55.720;37.606;2023-09-08T07:56:40;99759.81;;;16.13;45.57
74561;BME280;62979;55.720;37.606;2023-09-08T07:59:07;99756.91;;;16.19;45.55
74561;BME280;62979;55.720;37.606;2023-09-08T08:01:35;99750.03;;;15.96;45.91
74561;BME280;62979;55.720;37.606;2023-09-08T08:04:02;99739.00;;;16.07;45.84
74561;BME280;62979;55.720;37.606;2023-09-08T08:06:29;99732.75;;;16.10;45.05
74561;BME280;62979;55.720;37.606;2023-09-08T08:08:56;99733.75;;;16.07;45.02
74561;BME280;62979;55.720;37.606;2023-09-08T08:11:23;99744.41;;;15.85;45.21
74561;BME280;62979;55.720;37.606;2023-09-08T08:13:50;99748.25;;;15.97;44.78
74561;BME280;62979;55.720;37.606;2023-09-08T08:16:17;99743.75;;;15.99;44.48
74561;BME280;62979;55.720;37.606;2023-09-08T08:18:48;99700.78;;;15.57;45.20
74561;BME280;62979;55.720;37.606;2023-09-08T08:21:15;99711.59;;;15.72;45.38
74561;BME280;62979;55.720;37.606;2023-09-08T08:23:42;99726.38;;;16.14;44.76
74561;BME280;62979;55.720;37.606;2023-09-08T08:26:09;99705.91;;;16.55;44.26
74561;BME280;62979;55.720;37.606;2023-09-08T08:28:36;99696.03;;;16.78;43.90
74561;BME280;62979;55.720;37.606;2023-09-08T08:31:03;99700.56;;;16.93;44.27
74561;BME280;62979;55.720;37.606;2023-09-08T08:33:30;99671.94;;;16.66;43.45
74561;BME280;62979;55.720;37.606;2023-09-08T08:35:58;99690.06;;;16.92;43.54
74561;BME280;62979;55.720;37.606;2023-09-08T08:38:25;99696.06;;;16.95;43.77
74561;BME280;62979;55.720;37.606;2023-09-08T08:40:52;99692.78;;;16.90;43.46
74561;BME280;62979;55.720;37.606;2023-09-08T08:43:20;99679.06;;;16.64;43.88
74561;BME280;62979;55.720;37.606;2023-09-08T08:45:49;99688.00;;;16.62;43.92
74561;BME280;62979;55.720;37.606;2023-09-08T08:48:18;99684.56;;;16.60;44.97
74561;BME280;62979;55.720;37.606;2023-09-08T08:50:50;99680.19;;;16.95;44.16
74561;BME280;62979;55.720;37.606;2023-09-08T08:53:20;99667.38;;;17.05;43.79
74561;BME280;62979;55.720;37.606;2023-09-08T08:55:49;99678.72;;;17.07;43.82
74561;BME280;62979;55.720;37.606;2023-09-08T08:58:19;99666.63;;;17.19;44.14
74561;BME280;62979;55.720;37.606;2023-09-08T09:00:51;99665.13;;;17.15;43.83
74561;BME280;62979;55.720;37.606;2023-09-08T09:03:20;99659.91;;;16.96;44.28
74561;BME280;62979;55.720;37.606;2023-09-08T09:05:48;99656.72;;;17.06;44.09
74561;BME280;62979;55.720;37.606;2023-09-08T09:08:16;99648.66;;;17.09;44.17
74561;BME280;62979;55.720;37.606;2023-09-08T09:10:45;99640.69;;;17.27;44.36
74561;BME280;62979;55.720;37.606;2023-09-08T09:13:12;99646.41;;;17.35;44.34
74561;BME280;62979;55.720;37.606;2023-09-08T09:15:39;99640.09;;;17.38;43.93
74561;BME280;62979;55.720;37.606;2023-09-08T09:18:07;99643.81;;;17.67;44.43
74561;BME280;62979;55.720;37.606;2023-09-08T09:20:35;99638.47;;;17.84;43.71
74561;BME280;62979;55.720;37.606;2023-09-08T09:23:02;99644.59;;;17.69;43.96
74561;BME280;62979;55.720;37.606;2023-09-08T09:25:30;99641.03;;;18.02;44.26
74561;BME280;62979;55.720;37.606;2023-09-08T09:28:00;99641.72;;;18.21;43.64
74561;BME280;62979;55.720;37.606;2023-09-08T09:30:46;99639.97;;;18.52;42.92
74561;BME280;62979;55.720;37.606;2023-09-08T09:33:15;99636.53;;;18.20;43.22
74561;BME280;62979;55.720;37.606;2023-09-08T09:35:43;99639.22;;;18.34;43.62
74561;BME280;62979;55.720;37.606;2023-09-08T09:38:11;99644.59;;;18.32;43.34
74561;BME280;62979;55.720;37.606;2023-09-08T09:40:39;99641.03;;;18.02;43.92
74561;BME280;62979;55.720;37.606;2023-09-08T09:43:08;99646.00;;;17.92;45.01
74561;BME280;62979;55.720;37.606;2023-09-08T09:45:37;99625.69;;;17.43;44.98
74561;BME280;62979;55.720;37.606;2023-09-08T09:48:06;99628.34;;;17.43;45.12
74561;BME280;62979;55.720;37.606;2023-09-08T09:50:37;99640.31;;;17.66;45.74
74561;BME280;62979;55.720;37.606;2023-09-08T09:53:08;99642.25;;;17.80;45.14
74561;BME280;62979;55.720;37.606;2023-09-08T09:55:38;99640.03;;;17.88;44.70
74561;BME280;62979;55.720;37.606;2023-09-08T09:58:08;99618.50;;;17.79;44.20
74561;BME280;62979;55.720;37.606;2023-09-08T10:00:36;99628.88;;;17.50;45.13
74561;BME280;62979;55.720;37.606;2023-09-08T10:03:06;99614.69;;;17.35;45.28
74561;BME280;62979;55.720;37.606;2023-09-08T10:05:33;99619.25;;;17.49;46.02
74561;BME280;62979;55.720;37.606;2023-09-08T10:08:00;99630.53;;;17.68;46.48
74561;BME280;62979;55.720;37.606;2023-09-08T10:10:29;99611.31;;;17.65;46.01
74561;BME280;62979;55.720;37.606;2023-09-08T10:13:02;99633.78;;;17.40;46.20
74561;BME280;62979;55.720;37.606;2023-09-08T10:15:33;99646.75;;;17.29;47.26
74561;BME280;62979;55.720;37.606;2023-09-08T10:18:04;99637.16;;;17.26;50.21
74561;BME280;62979;55.720;37.606;2023-09-08T10:20:33;99652.03;;;17.11;52.07
74561;BME280;62979;55.720;37.606;2023-09-08T10:23:06;99657.66;;;17.05;53.71
74561;BME280;62979;55.720;37.606;2023-09-08T10:25:43;99643.63;;;16.87;54.60
74561;BME280;62979;55.720;37.606;2023-09-08T10:28:12;99648.16;;;16.66;55.38
74561;BME280;62979;55.720;37.606;2023-09-08T10:30:41;99663.16;;;16.66;56.67
74561;BME280;62979;55.720;37.606;2023-09-08T10:33:09;99666.25;;;16.57;56.75
74561;BME280;62979;55.720;37.606;2023-09-08T10:35:37;99672.75;;;16.50;57.94
74561;BME280;62979;55.720;37.606;2023-09-08T10:38:24;99666.22;;;16.39;59.57
74561;BME280;62979;55.720;37.606;2023-09-08T10:40:52;99660.59;;;16.28;59.44
74561;BME280;62979;55.720;37.606;2023-09-08T10:43:19;99648.19;;;15.94;59.13
74561;BME280;62979;55.720;37.606;2023-09-08T10:45:48;99649.03;;;15.94;60.98
74561;BME280;62979;55.720;37.606;2023-09-08T10:48:15;99651.66;;;15.94;61.20
74561;BME280;62979;55.720;37.606;2023-09-08T10:50:42;99645.47;;;16.14;61.57
74561;BME280;62979;55.720;37.606;2023-09-08T10:53:14;99659.34;;;16.54;61.82
74561;BME280;62979;55.720;37.606;2023-09-08T10:55:43;99643.97;;;16.80;61.58
74561;BME280;62979;55.720;37.606;2023-09-08T10:58:30;99647.78;;;17.09;58.73
74561;BME280;62979;55.720;37.606;2023-09-08T11:01:01;99642.06;;;17.34;58.18
74561;BME280;62979;55.720;37.606;2023-09-08T11:03:43;99644.38;;;17.89;57.34
74561;BME280;62979;55.720;37.606;2023-09-08T11:06:15;99636.06;;;18.27;54.34
74561;BME280;62979;55.720;37.606;2023-09-08T11:08:44;99632.28;;;18.47;53.05
74561;BME280;62979;55.720;37.606;2023-09-08T11:11:13;99633.53;;;18.56;51.78
74561;BME280;62979;55.720;37.606;2023-09-08T11:13:41;99626.22;;;18.45;52.71
74561;BME280;62979;55.720;37.606;2023-09-08T11:16:13;99627.53;;;18.22;51.61
74561;BME280;62979;55.720;37.606;2023-09-08T11:18:42;99649.75;;;18.04;52.37
74561;BME280;62979;55.720;37.606;2023-09-08T11:21:10;99652.19;;;17.75;52.37
74561;BME280;62979;55.720;37.606;2023-09-08T11:23:38;99680.28;;;17.44;56.74
74561;BME280;62979;55.720;37.606;2023-09-08T11:26:06;99699.31;;;17.18;63.68
74561;BME280;62979;55.720;37.606;2023-09-08T11:28:34;99679.41;;;16.76;59.09
74561;BME280;62979;55.720;37.606;2023-09-08T11:31:01;99673.94;;;16.44;60.53
74561;BME280;62979;55.720;37.606;2023-09-08T11:33:33;99666.56;;;16.14;61.35
74561;BME280;62979;55.720;37.606;2023-09-08T11:36:12;99663.25;;;16.09;62.03
74561;BME280;62979;55.720;37.606;2023-09-08T11:38:42;99668.06;;;16.01;62.07
74561;BME280;62979;55.720;37.606;2023-09-08T11:41:10;99663.72;;;16.00;61.57
74561;BME280;62979;55.720;37.606;2023-09-08T11:43:37;99654.31;;;15.94;61.63
74561;BME280;62979;55.720;37.606;2023-09-08T11:46:06;99659.34;;;15.99;62.02
74561;BME280;62979;55.720;37.606;2023-09-08T11:48:34;99660.16;;;16.01;60.84
74561;BME280;62979;55.720;37.606;2023-09-08T11:51:01;99661.09;;;16.00;60.80
74561;BME280;62979;55.720;37.606;2023-09-08T11:53:28;99665.16;;;16.07;60.91
74561;BME280;62979;55.720;37.606;2023-09-08T11:55:58;99666.66;;;16.30;60.69
74561;BME280;62979;55.720;37.606;2023-09-08T11:58:26;99674.09;;;16.58;60.19
74561;BME280;62979;55.720;37.606;2023-09-08T12:00:53;99667.53;;;16.84;59.19
74561;BME280;62979;55.720;37.606;2023-09-08T12:03:21;99666.13;;;17.12;58.30
74561;BME280;62979;55.720;37.606;2023-09-08T12:05:52;99657.47;;;17.59;57.13
74561;BME280;62979;55.720;37.606;2023-09-08T12:08:20;99676.03;;;18.85;54.38
74561;BME280;62979;55.720;37.606;2023-09-08T12:10:47;99670.00;;;18.97;53.62
74561;BME280;62979;55.720;37.606;2023-09-08T12:13:20;99672.00;;;18.93;51.84
74561;BME280;62979;55.720;37.606;2023-09-08T12:15:48;99667.59;;;18.62;52.40
74561;BME280;62979;55.720;37.606;2023-09-08T12:18:15;99656.88;;;18.49;50.79
74561;BME280;62979;55.720;37.606;2023-09-08T12:20:42;99667.88;;;19.18;50.22
74561;BME280;62979;55.720;37.606;2023-09-08T12:23:18;99668.72;;;19.33;48.06
74561;BME280;62979;55.720;37.606;2023-09-08T12:25:46;99663.63;;;19.30;48.24
74561;BME280;62979;55.720;37.606;2023-09-08T12:28:17;99669.28;;;19.23;48.24
74561;BME280;62979;55.720;37.606;2023-09-08T12:30:43;99660.00;;;19.31;49.54
74561;BME280;62979;55.720;37.606;2023-09-08T12:33:11;99663.06;;;19.24;48.18
74561;BME280;62979;55.720;37.606;2023-09-08T12:35:42;99656.00;;;19.09;47.30
74561;BME280;62979;55.720;37.606;2023-09-08T12:38:09;99655.97;;;18.80;47.81
74561;BME280;62979;55.720;37.606;2023-09-08T12:40:38;99651.13;;;18.57;47.19
74561;BME280;62979;55.720;37.606;2023-09-08T12:43:05;99659.66;;;18.32;48.29
74561;BME280;62979;55.720;37.606;2023-09-08T12:45:32;99676.38;;;18.16;49.85
74561;BME280;62979;55.720;37.606;2023-09-08T12:48:00;99659.91;;;17.95;47.92
74561;BME280;62979;55.720;37.606;2023-09-08T12:50:29;99668.09;;;17.91;46.95
74561;BME280;62979;55.720;37.606;2023-09-08T12:52:56;99668.34;;;17.86;47.24